Time;durP1;ratioP1;P1;durP2;ratioP2;P2;SDS_P1;SDS_P2;PMS_P1;PMS_P2;Temp;Humidity;BMP_temperature;BMP_pressure;BME280_temperature;BME280_humidity;BME280_pressure;Samples;Min_cycle;Max_cycle;Signal;HPM_P1;HPM_P2
2022/04/04 00:02:22;;;;;;;86.12;31.10;;;;;;;1.99;55.15;100311.41;4451076;32;34307;-66
2022/04/04 00:04:50;;;;;;;85.18;33.28;;;;;;;2.67;53.33;100317.16;4455313;32;33819;-67
2022/04/04 00:07:17;;;;;;;84.95;31.50;;;;;;;2.62;53.14;100315.88;4456007;32;33059;-65
2022/04/04 00:09:46;;;;;;;79.82;32.38;;;;;;;2.83;52.37;100320.22;4454159;32;34584;-66
2022/04/04 00:12:14;;;;;;;94.68;33.33;;;;;;;3.04;52.03;100320.22;4456522;32;32355;-66
2022/04/04 00:14:42;;;;;;;88.10;32.10;;;;;;;3.19;51.36;100316.38;4439019;32;33756;-65
2022/04/04 00:17:10;;;;;;;85.82;31.20;;;;;;;3.01;51.33;100315.72;4435274;32;33196;-67
2022/04/04 00:19:39;;;;;;;75.07;28.35;;;;;;;3.09;51.25;100311.22;4452315;32;33800;-66
2022/04/04 00:22:07;;;;;;;72.95;26.30;;;;;;;3.53;49.90;100314.87;4453015;32;33908;-66
2022/04/04 00:24:36;;;;;;;57.38;22.70;;;;;;;3.67;49.73;100320.19;4454219;32;33931;-66
2022/04/04 00:27:04;;;;;;;39.17;16.83;;;;;;;3.62;49.33;100319.84;4454837;32;33504;-64
2022/04/04 00:29:32;;;;;;;43.35;16.80;;;;;;;3.49;48.81;100312.81;4461095;32;33785;-65
2022/04/04 00:31:59;;;;;;;36.88;15.45;;;;;;;2.61;51.45;100321.72;4455059;32;33724;-66
2022/04/04 00:34:27;;;;;;;33.30;15.80;;;;;;;2.95;50.45;100321.25;4454196;32;33419;-66
2022/04/04 00:36:55;;;;;;;36.55;14.20;;;;;;;2.72;52.51;100333.75;4456646;32;33897;-65
2022/04/04 00:39:23;;;;;;;36.85;15.77;;;;;;;2.75;51.96;100323.81;4463418;32;33423;-66
2022/04/04 00:41:51;;;;;;;49.05;17.30;;;;;;;3.26;50.67;100321.19;4446179;32;33978;-65
2022/04/04 00:44:19;;;;;;;39.63;16.40;;;;;;;3.04;50.53;100321.09;4448791;32;34186;-65
2022/04/04 00:46:46;;;;;;;43.78;17.90;;;;;;;2.94;50.33;100319.44;4454773;32;34259;-64
2022/04/04 00:49:14;;;;;;;61.58;23.33;;;;;;;2.50;52.28;100324.28;4437147;32;33848;-65
2022/04/04 00:51:42;;;;;;;57.85;24.05;;;;;;;2.75;51.83;100321.25;4438564;32;33880;-66
2022/04/04 00:54:09;;;;;;;67.30;24.15;;;;;;;2.54;52.76;100325.44;4438536;32;34482;-66
2022/04/04 00:56:39;;;;;;;68.00;26.12;;;;;;;2.63;52.86;100310.00;4454176;32;34042;-65
2022/04/04 00:59:10;;;;;;;59.95;23.60;;;;;;;2.80;52.25;100319.97;4457406;32;34698;-66
2022/04/04 01:01:38;;;;;;;61.45;24.52;;;;;;;1.84;54.36;100312.63;4441545;32;34057;-67
2022/04/04 01:04:08;;;;;;;72.55;26.08;;;;;;;2.12;53.53;100314.22;4449723;32;34568;-65
2022/04/04 01:06:35;;;;;;;72.12;26.65;;;;;;;1.20;56.27;100316.38;4446248;32;33600;-64
2022/04/04 01:09:03;;;;;;;76.10;28.52;;;;;;;0.57;58.40;100319.19;4430901;32;33696;-65
2022/04/04 01:11:31;;;;;;;64.90;24.85;;;;;;;1.10;56.51;100324.84;4449502;32;35033;-67
2022/04/04 01:13:58;;;;;;;70.07;26.87;;;;;;;0.96;56.81;100326.13;4452014;32;33821;-65
2022/04/04 01:16:26;;;;;;;32.05;14.27;;;;;;;1.14;55.71;100321.81;4448994;32;34532;-66
2022/04/04 01:18:54;;;;;;;24.42;11.12;;;;;;;0.62;58.08;100318.69;4448702;32;34385;-66
2022/04/04 01:21:21;;;;;;;53.00;20.62;;;;;;;0.77;57.83;100320.09;4457103;32;33824;-66
2022/04/04 01:23:50;;;;;;;53.87;23.25;;;;;;;0.84;57.13;100319.91;4448366;32;33891;-66
2022/04/04 01:26:18;;;;;;;28.48;12.63;;;;;;;0.61;57.46;100322.91;4441964;32;33515;-66
2022/04/04 01:28:46;;;;;;;52.28;21.27;;;;;;;0.63;58.39;100329.03;4450542;32;34450;-66
2022/04/04 01:31:13;;;;;;;63.70;26.23;;;;;;;0.72;57.71;100334.09;4445047;32;34027;-65
2022/04/04 01:33:41;;;;;;;55.70;22.62;;;;;;;0.82;57.27;100326.53;4450409;32;33806;-66
2022/04/04 01:36:08;;;;;;;68.05;25.83;;;;;;;0.66;58.15;100334.44;4453982;32;34320;-67
2022/04/04 01:38:36;;;;;;;84.15;30.15;;;;;;;0.73;57.69;100331.69;4455843;32;33805;-65
2022/04/04 01:41:03;;;;;;;98.43;36.25;;;;;;;0.82;57.56;100326.53;4439936;32;33569;-67
2022/04/04 01:43:31;;;;;;;74.70;27.83;;;;;;;1.09;56.58;100327.25;4444156;32;33787;-65
2022/04/04 01:48:44;;;;;;;74.00;28.00;;;;;;;1.35;55.90;100338.16;4459161;32;32642;-67
2022/04/04 01:51:12;;;;;;;70.87;29.10;;;;;;;2.12;54.20;100329.56;4443291;32;33484;-66
2022/04/04 01:53:39;;;;;;;72.90;26.02;;;;;;;2.27;53.99;100329.09;4439864;32;34286;-66
2022/04/04 01:56:07;;;;;;;68.15;25.30;;;;;;;2.72;52.81;100332.13;4445454;32;34362;-65
2022/04/04 01:58:35;;;;;;;41.78;18.45;;;;;;;2.15;54.93;100319.59;4452800;32;34143;-65
2022/04/04 02:01:08;;;;;;;36.95;16.70;;;;;;;3.06;52.01;100323.81;4457274;32;34636;-66
2022/04/04 02:03:37;;;;;;;51.75;21.90;;;;;;;2.41;53.60;100333.72;4460605;26;34483;-84
2022/04/04 02:06:05;;;;;;;36.35;16.62;;;;;;;2.24;54.45;100326.28;4443525;32;33524;-84
2022/04/04 02:08:32;;;;;;;38.30;14.98;;;;;;;2.71;53.44;100335.44;4431823;32;33900;-83
2022/04/04 02:11:03;;;;;;;35.92;14.48;;;;;;;1.50;55.61;100338.59;4437594;32;33378;-84
2022/04/04 02:13:31;;;;;;;26.87;11.70;;;;;;;2.11;53.84;100321.78;4427503;32;33880;-84
2022/04/04 02:16:01;;;;;;;22.80;10.38;;;;;;;2.04;54.13;100320.34;4443216;32;34234;-84
2022/04/04 02:18:30;;;;;;;24.58;10.82;;;;;;;2.21;53.91;100320.91;4430626;32;34016;-83
2022/04/04 02:20:58;;;;;;;25.27;11.30;;;;;;;1.54;55.79;100329.56;4422853;32;31879;-83
2022/04/04 02:23:25;;;;;;;26.95;11.40;;;;;;;1.93;54.93;100313.41;4434756;32;34079;-83
2022/04/04 02:25:55;;;;;;;25.52;10.02;;;;;;;2.43;53.36;100321.97;4449115;32;33702;-83
2022/04/04 02:28:23;;;;;;;24.02;10.63;;;;;;;1.42;56.38;100323.38;4431853;32;33845;-84
2022/04/04 02:30:52;;;;;;;20.75;8.88;;;;;;;1.26;57.02;100314.38;4441103;32;34365;-83
2022/04/04 02:33:21;;;;;;;15.27;8.57;;;;;;;1.65;55.66;100318.66;4421294;32;33859;-83
2022/04/04 02:35:50;;;;;;;17.12;7.78;;;;;;;1.80;55.34;100328.41;4420085;32;34139;-83
2022/04/04 02:38:20;;;;;;;17.48;9.05;;;;;;;2.32;53.63;100327.84;4424793;32;34240;-83
2022/04/04 02:40:47;;;;;;;19.05;8.95;;;;;;;1.59;56.32;100328.34;4425602;32;33677;-83
2022/04/04 02:43:16;;;;;;;15.75;8.15;;;;;;;1.96;55.33;100326.44;4412691;32;33991;-83
2022/04/04 02:45:45;;;;;;;16.48;7.60;;;;;;;1.92;55.39;100329.50;4424124;32;33913;-83
2022/04/04 02:48:15;;;;;;;14.55;8.15;;;;;;;1.06;56.81;100329.53;4425653;32;34335;-83
2022/04/04 02:50:43;;;;;;;16.05;7.62;;;;;;;0.91;57.31;100327.38;4435166;32;32474;-83
2022/04/04 02:53:12;;;;;;;15.57;9.23;;;;;;;0.85;58.66;100319.19;4439294;32;34488;-83
2022/04/04 02:58:26;;;;;;;17.30;8.90;;;;;;;0.98;58.87;100334.84;4424206;32;34620;-83
2022/04/04 03:00:54;;;;;;;17.02;9.02;;;;;;;1.40;57.21;100335.13;4437744;32;33329;-83
2022/04/04 03:03:23;;;;;;;21.12;9.90;;;;;;;1.20;58.23;100331.69;4425105;32;33858;-83
2022/04/04 03:05:51;;;;;;;17.37;10.02;;;;;;;0.89;59.37;100331.44;4436908;32;33240;-83
2022/04/04 03:08:19;;;;;;;18.85;10.20;;;;;;;1.38;58.16;100338.41;4423153;32;34621;-83
2022/04/04 03:10:46;;;;;;;20.02;8.77;;;;;;;0.10;63.23;100338.59;4438492;32;33877;-83
2022/04/04 03:13:13;;;;;;;16.87;9.40;;;;;;;-0.40;65.38;100342.28;4424318;32;34104;-83
2022/04/04 03:15:41;;;;;;;16.77;9.27;;;;;;;-0.36;65.39;100354.56;4423424;32;34311;-83
2022/04/04 03:18:09;;;;;;;18.67;9.00;;;;;;;-0.32;64.95;100346.47;4441224;32;34727;-83
2022/04/04 03:20:36;;;;;;;16.25;8.88;;;;;;;-0.31;64.82;100353.38;4424445;32;34498;-83
2022/04/04 03:23:04;;;;;;;18.45;9.43;;;;;;;-0.32;64.81;100351.56;4439350;32;34508;-83
2022/04/04 03:25:31;;;;;;;20.88;9.32;;;;;;;-0.30;65.06;100360.25;4439037;32;33507;-83
2022/04/04 03:27:59;;;;;;;21.77;9.48;;;;;;;-0.47;65.25;100350.09;4424471;32;32284;-83
2022/04/04 03:30:28;;;;;;;19.12;8.90;;;;;;;-0.49;65.79;100351.59;4436451;32;33750;-83
2022/04/04 03:32:59;;;;;;;18.58;8.57;;;;;;;-0.33;65.26;100349.78;4422989;32;33815;-83
2022/04/04 03:35:29;;;;;;;18.60;8.20;;;;;;;-0.65;66.17;100350.09;4424300;32;33424;-83
2022/04/04 03:37:59;;;;;;;17.90;8.27;;;;;;;-0.76;66.87;100353.22;4439329;32;34623;-83
2022/04/04 03:40:28;;;;;;;13.62;7.60;;;;;;;-1.04;67.19;100353.06;4437572;32;34478;-83
2022/04/04 03:42:56;;;;;;;15.43;8.50;;;;;;;-0.48;65.03;100353.41;4411500;32;32282;-83
2022/04/04 03:45:25;;;;;;;16.52;8.25;;;;;;;-0.88;66.54;100352.03;4424189;32;32882;-83
2022/04/04 03:47:53;;;;;;;15.95;8.63;;;;;;;-0.89;66.85;100362.94;4437945;32;34929;-83
2022/04/04 03:50:21;;;;;;;18.50;8.05;;;;;;;-0.55;65.22;100356.97;4421082;32;33874;-83
2022/04/04 03:52:52;;;;;;;13.82;7.65;;;;;;;-0.94;66.64;100359.97;4439465;32;34522;-83
2022/04/04 03:55:25;;;;;;;17.10;9.13;;;;;;;-1.06;67.43;100364.72;4424789;32;33627;-83
2022/04/04 03:57:53;;;;;;;17.25;9.27;;;;;;;-0.86;66.70;100363.25;4430216;32;33958;-83
2022/04/04 04:00:22;;;;;;;13.77;8.93;;;;;;;-0.80;66.41;100359.66;4423022;32;33415;-83
2022/04/04 04:02:50;;;;;;;18.65;9.38;;;;;;;-0.71;66.27;100362.22;4410845;32;34661;-83
2022/04/04 04:05:18;;;;;;;18.12;8.88;;;;;;;-0.65;66.09;100370.44;4424562;32;33645;-83
2022/04/04 04:07:45;;;;;;;20.48;8.13;;;;;;;-0.70;66.33;100371.63;4438160;32;34521;-83
2022/04/04 04:10:13;;;;;;;16.15;8.70;;;;;;;-0.63;65.78;100379.13;4413611;32;33192;-83
2022/04/04 04:12:42;;;;;;;20.85;9.25;;;;;;;-0.57;65.99;100373.75;4421122;32;34607;-83
2022/04/04 04:15:15;;;;;;;19.25;9.38;;;;;;;-0.51;66.47;100375.97;4436253;32;34690;-83
2022/04/04 04:17:43;;;;;;;17.50;8.77;;;;;;;-0.11;64.76;100377.31;4421132;32;34530;-83
2022/04/04 04:20:20;;;;;;;22.87;10.35;;;;;;;0.01;64.22;100370.81;4422415;32;33982;-83
2022/04/04 04:22:52;;;;;;;23.33;11.65;;;;;;;-0.07;64.56;100370.09;4434353;32;34589;-83
2022/04/04 04:25:21;;;;;;;23.73;13.73;;;;;;;0.08;63.72;100369.75;4437707;32;33589;-82
2022/04/04 04:27:50;;;;;;;24.35;12.18;;;;;;;0.20;63.16;100370.91;4422177;32;33547;-83
2022/04/04 04:30:18;;;;;;;18.48;10.13;;;;;;;-0.13;64.10;100368.63;4422695;32;34739;-82
2022/04/04 04:32:48;;;;;;;16.60;8.95;;;;;;;-0.67;66.18;100361.75;4436812;32;33946;-82
2022/04/04 04:35:17;;;;;;;16.42;8.95;;;;;;;-0.84;68.05;100371.94;4424283;32;33219;-82
2022/04/04 04:37:45;;;;;;;18.98;9.18;;;;;;;-0.93;67.13;100366.81;4423190;32;34037;-82
2022/04/04 04:40:14;;;;;;;24.12;9.98;;;;;;;-0.83;66.78;100373.72;4411135;32;33970;-82
2022/04/04 04:42:44;;;;;;;20.58;9.32;;;;;;;-0.82;66.59;100372.97;4423053;32;34517;-82
2022/04/04 04:45:12;;;;;;;23.05;11.40;;;;;;;-1.33;69.19;100375.59;4423395;32;32268;-82
2022/04/04 04:47:41;;;;;;;25.77;10.90;;;;;;;-1.07;68.53;100383.25;4431057;32;34703;-82
2022/04/04 04:50:13;;;;;;;22.33;12.30;;;;;;;-1.45;69.07;100382.87;4437474;32;34249;-82
2022/04/04 04:52:41;;;;;;;25.88;13.25;;;;;;;-1.05;67.87;100381.75;4417467;32;34256;-82
2022/04/04 04:55:09;;;;;;;29.83;13.57;;;;;;;-1.61;69.46;100374.44;4423532;32;33722;-81
2022/04/04 04:57:38;;;;;;;26.00;13.18;;;;;;;-1.66;70.82;100380.66;4416498;32;34550;-82
2022/04/04 05:00:07;;;;;;;26.80;12.88;;;;;;;-1.30;69.76;100387.69;4421088;32;34613;-82
2022/04/04 05:02:35;;;;;;;18.15;10.02;;;;;;;-1.07;69.00;100388.34;4435695;32;34629;-82
2022/04/04 05:05:04;;;;;;;17.83;8.00;;;;;;;-1.11;68.07;100385.34;4438137;32;34016;-81
2022/04/04 05:07:32;;;;;;;16.25;8.32;;;;;;;-1.00;66.71;100390.75;4430854;32;33911;-81
2022/04/04 05:10:00;;;;;;;20.23;9.90;;;;;;;-1.01;67.19;100382.97;4430767;32;33529;-81
2022/04/04 05:12:27;;;;;;;17.67;9.02;;;;;;;-0.90;66.76;100392.56;4435666;32;34060;-81
2022/04/04 05:14:55;;;;;;;17.10;9.05;;;;;;;0.47;62.83;100384.47;4417678;32;32078;-82
2022/04/04 05:17:22;;;;;;;15.77;9.02;;;;;;;0.87;61.77;100386.53;4418021;32;33921;-82
2022/04/04 05:19:51;;;;;;;15.15;8.90;;;;;;;-0.13;64.07;100394.09;4436186;32;34613;-82
2022/04/04 05:22:19;;;;;;;18.67;9.32;;;;;;;-0.29;64.83;100390.06;4420460;32;33947;-82
2022/04/04 05:24:47;;;;;;;16.85;8.90;;;;;;;0.45;63.18;100394.53;4434604;32;33680;-82
2022/04/04 05:27:14;;;;;;;17.87;9.43;;;;;;;1.30;59.87;100385.34;4423121;32;34049;-82
2022/04/04 05:29:42;;;;;;;14.45;7.87;;;;;;;1.90;57.69;100382.13;4422342;32;33888;-82
2022/04/04 05:32:09;;;;;;;21.48;9.80;;;;;;;1.67;57.43;100392.84;4424792;32;33874;-82
2022/04/04 05:34:37;;;;;;;21.48;10.25;;;;;;;-0.08;62.68;100403.03;4423385;32;31845;-82
2022/04/04 05:37:05;;;;;;;15.73;8.52;;;;;;;-0.40;63.87;100404.28;4439721;32;33754;-83
2022/04/04 05:39:32;;;;;;;19.55;8.35;;;;;;;-0.03;62.69;100407.81;4421025;32;33812;-83
2022/04/04 05:42:00;;;;;;;19.02;8.85;;;;;;;0.52;61.28;100403.63;4420451;32;34676;-82
2022/04/04 05:44:28;;;;;;;19.85;9.27;;;;;;;0.10;61.44;100403.94;4436164;32;34129;-82
2022/04/04 05:46:56;;;;;;;19.73;9.20;;;;;;;0.46;60.14;100406.50;4421900;32;33862;-82
2022/04/04 05:49:24;;;;;;;18.10;9.30;;;;;;;1.28;58.50;100406.37;4437506;32;34505;-82
2022/04/04 05:51:51;;;;;;;22.25;9.30;;;;;;;0.38;60.89;100402.34;4420820;32;33961;-82
2022/04/04 05:54:34;;;;;;;19.33;9.77;;;;;;;1.31;59.35;100412.66;4419404;32;34140;-81
2022/04/04 05:57:02;;;;;;;17.60;9.30;;;;;;;1.72;56.73;100407.84;4424364;32;34669;-82
2022/04/04 05:59:29;;;;;;;14.55;8.73;;;;;;;2.41;55.35;100404.44;4438481;32;33459;-82
2022/04/04 06:01:57;;;;;;;19.17;8.40;;;;;;;2.75;53.87;100405.66;4438147;32;33911;-82
2022/04/04 06:04:26;;;;;;;18.48;8.45;;;;;;;2.34;54.31;100409.00;4438243;32;34290;-81
2022/04/04 06:06:53;;;;;;;18.12;8.27;;;;;;;2.75;52.84;100403.09;4418133;32;32775;-82
2022/04/04 06:09:21;;;;;;;14.02;7.45;;;;;;;2.98;52.25;100401.62;4417308;32;34665;-82
2022/04/04 06:11:49;;;;;;;15.50;7.85;;;;;;;3.01;51.94;100406.97;4421466;32;32230;-82
2022/04/04 06:14:16;;;;;;;17.70;7.75;;;;;;;1.27;56.38;100415.66;4417570;32;34128;-82
2022/04/04 06:16:44;;;;;;;17.08;7.82;;;;;;;1.55;56.40;100424.19;4406912;32;33149;-83
2022/04/04 06:19:16;;;;;;;14.52;6.47;;;;;;;2.15;53.62;100416.72;4408830;32;33232;-83
2022/04/04 06:21:44;;;;;;;17.33;8.45;;;;;;;2.76;51.91;100415.12;4412535;32;32620;-82
2022/04/04 06:24:12;;;;;;;12.10;6.62;;;;;;;2.17;52.91;100420.31;4436772;32;33500;-83
2022/04/04 06:26:40;;;;;;;11.77;6.50;;;;;;;1.70;54.36;100428.88;4425721;32;33991;-82
2022/04/04 06:29:10;;;;;;;10.77;6.28;;;;;;;2.46;52.80;100424.50;4425700;32;33838;-82
2022/04/04 06:31:38;;;;;;;11.82;6.45;;;;;;;1.48;54.43;100426.06;4414336;32;33316;-83
2022/04/04 06:34:07;;;;;;;15.07;6.90;;;;;;;2.22;52.87;100427.47;4426466;32;33687;-83
2022/04/04 06:36:37;;;;;;;11.35;5.62;;;;;;;2.77;51.58;100416.94;4421149;32;33961;-82
2022/04/04 06:39:05;;;;;;;12.23;6.28;;;;;;;3.10;50.54;100428.22;4421359;32;32661;-83
2022/04/04 06:41:34;;;;;;;9.60;6.10;;;;;;;3.55;48.88;100435.38;4413342;32;32564;-83
2022/04/04 06:44:03;;;;;;;10.98;6.75;;;;;;;2.60;52.02;100422.25;4435026;32;32791;-85
2022/04/04 06:46:31;;;;;;;14.65;7.53;;;;;;;1.72;53.44;100428.25;4412451;32;34533;-86
2022/04/04 06:49:00;;;;;;;17.37;6.82;;;;;;;2.49;52.98;100424.78;4401857;32;32369;-87
2022/04/04 06:51:27;;;;;;;13.62;6.97;;;;;;;2.19;53.57;100427.22;4419710;32;33939;-81
2022/04/04 06:53:55;;;;;;;9.32;5.85;;;;;;;3.47;50.14;100431.28;4410271;32;32854;-83
2022/04/04 06:56:23;;;;;;;11.88;6.82;;;;;;;3.08;51.66;100429.75;4412198;32;32540;-84
2022/04/04 06:58:51;;;;;;;11.35;6.53;;;;;;;3.46;50.45;100435.53;4410912;32;33181;-86
2022/04/04 07:01:19;;;;;;;11.88;6.20;;;;;;;3.19;50.93;100433.22;4424959;32;34202;-86
2022/04/04 07:03:47;;;;;;;12.40;6.90;;;;;;;3.61;49.36;100435.91;4421735;32;31859;-86
2022/04/04 07:06:16;;;;;;;14.60;7.93;;;;;;;3.40;49.41;100434.09;4421481;32;32880;-88
2022/04/04 07:08:43;;;;;;;12.60;7.57;;;;;;;2.89;51.60;100430.75;4418855;32;33219;-88
2022/04/04 07:11:13;;;;;;;14.27;8.88;;;;;;;3.42;50.82;100423.25;4399917;32;34480;-86
2022/04/04 07:13:44;;;;;;;13.32;8.07;;;;;;;2.16;52.27;100433.87;4413940;32;33778;-86
2022/04/04 07:16:12;;;;;;;16.37;9.32;;;;;;;1.72;55.15;100428.25;4417544;32;34628;-89
2022/04/04 07:18:40;;;;;;;19.52;11.57;;;;;;;2.24;54.13;100431.06;4416610;32;32739;-87
2022/04/04 07:21:07;;;;;;;14.87;8.82;;;;;;;1.83;53.22;100430.88;4387256;32;32902;-87
2022/04/04 07:23:35;;;;;;;14.45;8.27;;;;;;;2.47;52.82;100430.53;4408393;32;32107;-87
2022/04/04 07:26:03;;;;;;;13.48;6.62;;;;;;;2.19;52.88;100432.34;4422051;32;34199;-89
2022/04/04 07:28:30;;;;;;;14.38;6.15;;;;;;;2.24;51.40;100432.00;4407029;32;33490;-89
2022/04/04 07:30:58;;;;;;;11.90;6.85;;;;;;;2.33;50.69;100437.00;4408089;32;32091;-88
2022/04/04 07:33:26;;;;;;;9.68;6.53;;;;;;;2.15;50.96;100431.19;4414645;32;33002;-91
2022/04/04 07:35:54;;;;;;;9.50;6.30;;;;;;;2.52;49.77;100435.28;4423271;32;34012;-94
2022/04/04 07:38:22;;;;;;;13.18;6.47;;;;;;;3.14;49.23;100433.72;4401026;32;33008;-92
2022/04/04 07:40:55;;;;;;;10.57;6.70;;;;;;;3.94;49.22;100434.31;4414703;32;33982;-91
2022/04/04 07:43:23;;;;;;;10.77;5.80;;;;;;;4.25;48.29;100422.28;4418029;32;33510;-89
2022/04/04 07:45:50;;;;;;;9.52;6.25;;;;;;;4.33;46.81;100423.78;4423445;32;34641;-88
2022/04/04 07:48:19;;;;;;;10.95;6.43;;;;;;;4.67;45.18;100420.41;4417656;32;33984;-86
2022/04/04 07:50:51;;;;;;;12.32;7.40;;;;;;;4.24;47.52;100427.28;4415005;32;33841;-86
2022/04/04 07:53:19;;;;;;;9.57;5.87;;;;;;;2.89;51.58;100424.75;4417786;32;34084;-85
2022/04/04 07:55:47;;;;;;;9.68;6.37;;;;;;;3.86;49.42;100427.66;4418054;32;34401;-87
2022/04/04 07:58:17;;;;;;;11.85;6.45;;;;;;;4.04;46.82;100423.13;4414196;32;33806;-86
2022/04/04 08:00:45;;;;;;;13.77;6.85;;;;;;;4.36;47.04;100415.41;4422539;32;33742;-86
2022/04/04 08:03:13;;;;;;;11.18;6.57;;;;;;;5.09;45.71;100421.94;4431176;32;33427;-87
2022/04/04 08:05:41;;;;;;;8.88;5.47;;;;;;;5.07;44.96;100419.22;4437940;32;34612;-84
2022/04/04 08:08:08;;;;;;;10.85;6.18;;;;;;;4.64;45.70;100415.03;4422198;32;33468;-86
2022/04/04 08:10:36;;;;;;;11.18;5.90;;;;;;;4.30;46.49;100417.50;4427611;32;34373;-85
2022/04/04 08:13:04;;;;;;;9.63;5.95;;;;;;;4.44;46.45;100418.59;4422761;32;34235;-86
2022/04/04 08:15:31;;;;;;;8.05;5.03;;;;;;;5.91;43.65;100410.91;4423286;32;34062;-84
2022/04/04 08:17:59;;;;;;;7.65;5.22;;;;;;;6.87;40.54;100406.59;4437944;32;34713;-84
2022/04/04 08:20:27;;;;;;;9.60;4.75;;;;;;;7.77;37.02;100404.84;4421445;32;33830;-84
2022/04/04 08:22:55;;;;;;;8.23;5.62;;;;;;;8.96;35.76;100400.31;4438895;32;32750;-84
2022/04/04 08:25:23;;;;;;;8.40;4.72;;;;;;;9.47;34.03;100401.66;4428586;32;33696;-85
2022/04/04 08:27:51;;;;;;;8.80;5.07;;;;;;;9.37;34.12;100391.56;4438510;32;33995;-83
2022/04/04 08:30:21;;;;;;;8.73;4.87;;;;;;;9.18;34.16;100398.22;4437962;32;34130;-84
2022/04/04 08:32:49;;;;;;;7.12;3.85;;;;;;;9.98;32.37;100387.31;4436999;32;33067;-84
2022/04/04 08:35:17;;;;;;;9.45;4.87;;;;;;;10.22;31.60;100392.13;4437977;32;32540;-84
2022/04/04 11:28:43;;;;;;;8.05;4.05;;;;;;;6.44;38.75;100210.59;4463617;26;34954;-64
2022/04/04 11:31:11;;;;;;;7.35;4.20;;;;;;;7.24;39.08;100208.16;4425938;32;34573;-62
2022/04/04 11:33:51;;;;;;;9.70;4.50;;;;;;;7.10;39.20;100206.34;4432526;32;32364;-63
2022/04/04 11:36:32;;;;;;;7.55;5.18;;;;;;;6.85;41.08;100209.00;4435309;32;33752;-62
2022/04/04 11:39:03;;;;;;;9.95;4.82;;;;;;;6.79;41.12;100200.88;4448626;32;33537;-64
2022/04/04 11:41:36;;;;;;;10.63;4.93;;;;;;;6.80;40.84;100200.97;4452214;32;33672;-64
2022/04/04 11:44:05;;;;;;;7.15;4.43;;;;;;;6.52;40.91;100197.34;4452809;32;34651;-62
2022/04/04 11:46:32;;;;;;;9.88;5.07;;;;;;;6.80;41.34;100197.50;4453249;32;33934;-63
2022/04/04 11:49:01;;;;;;;7.87;5.70;;;;;;;7.03;42.29;100183.53;4439397;32;34064;-64
2022/04/04 11:51:34;;;;;;;7.87;5.05;;;;;;;6.58;43.41;100192.59;4439001;32;33966;-63
2022/04/04 11:54:09;;;;;;;8.68;5.50;;;;;;;6.35;43.52;100194.53;4452433;32;33740;-63
2022/04/04 11:56:37;;;;;;;8.35;5.32;;;;;;;6.22;42.58;100191.91;4453030;32;33991;-63
2022/04/04 11:59:06;;;;;;;8.85;4.80;;;;;;;6.36;44.39;100175.72;4453206;32;33444;-64
2022/04/04 12:01:34;;;;;;;10.70;5.32;;;;;;;6.58;43.89;100172.03;4440123;32;34466;-63
2022/04/04 12:04:05;;;;;;;10.95;5.30;;;;;;;6.80;44.22;100171.75;4453684;32;33365;-64
2022/04/04 12:06:34;;;;;;;10.48;5.43;;;;;;;6.39;44.44;100157.91;4453467;32;33909;-64
2022/04/04 12:09:07;;;;;;;8.70;5.22;;;;;;;6.40;44.84;100157.12;4427664;32;33669;-62
2022/04/04 12:11:35;;;;;;;10.07;5.55;;;;;;;6.36;44.93;100154.28;4453372;32;34544;-62
2022/04/04 12:14:02;;;;;;;8.60;5.10;;;;;;;6.28;45.14;100157.22;4453994;32;33537;-61
2022/04/04 12:16:32;;;;;;;10.63;5.68;;;;;;;6.25;45.00;100157.00;4453233;32;34811;-63
2022/04/04 12:19:01;;;;;;;9.00;5.68;;;;;;;6.35;45.07;100152.47;4440229;32;33494;-63
2022/04/04 12:21:29;;;;;;;13.43;6.32;;;;;;;6.49;44.71;100147.47;4437139;32;34005;-62
2022/04/04 12:26:46;;;;;;;9.65;5.78;;;;;;;6.73;44.57;100121.53;4428509;32;34808;-66
2022/04/04 12:29:14;;;;;;;10.23;5.68;;;;;;;6.99;44.75;100124.91;4454246;32;33502;-63
2022/04/04 12:31:55;;;;;;;9.98;5.62;;;;;;;6.80;44.29;100123.72;4430265;32;34292;-64
2022/04/04 12:34:26;;;;;;;9.35;5.30;;;;;;;7.29;44.05;100108.81;4423702;32;33324;-66
2022/04/04 12:36:59;;;;;;;9.50;5.43;;;;;;;7.64;42.28;100099.78;4449711;32;78142;-64
2022/04/04 12:39:27;;;;;;;8.85;5.03;;;;;;;7.86;42.54;100096.84;4427036;32;33460;-65
2022/04/04 12:41:54;;;;;;;7.55;5.25;;;;;;;7.62;42.64;100096.22;4440019;32;32351;-65
2022/04/04 12:44:23;;;;;;;7.85;5.57;;;;;;;7.37;43.32;100098.09;4439307;32;33919;-64
2022/04/04 12:47:03;;;;;;;9.95;5.65;;;;;;;7.91;42.60;100081.63;4452628;32;33943;-65
2022/04/04 12:49:31;;;;;;;10.77;6.10;;;;;;;7.86;42.59;100081.37;4451732;32;34117;-63
2022/04/04 12:52:19;;;;;;;9.18;6.05;;;;;;;7.66;42.63;100077.56;4431286;32;32350;-64
2022/04/04 12:54:46;;;;;;;9.23;5.90;;;;;;;7.78;43.42;100077.41;4439976;32;33862;-64
2022/04/04 12:57:25;;;;;;;9.63;5.37;;;;;;;7.39;42.90;100075.88;4438488;32;33965;-64
2022/04/04 12:59:57;;;;;;;9.05;5.10;;;;;;;7.27;44.84;100074.31;4434659;32;33297;-65
2022/04/04 13:02:32;;;;;;;9.35;5.37;;;;;;;7.21;43.47;100076.53;4439338;32;32143;-63
2022/04/04 13:05:18;;;;;;;7.90;4.90;;;;;;;7.70;43.30;100070.03;4453880;32;33716;-64
2022/04/04 13:07:47;;;;;;;9.52;5.28;;;;;;;7.98;41.73;100065.72;4438546;32;33806;-66
2022/04/04 13:10:15;;;;;;;8.07;5.07;;;;;;;7.53;42.48;100058.69;4451351;32;33154;-65
2022/04/04 13:12:43;;;;;;;8.48;4.95;;;;;;;7.01;42.96;100064.06;4437847;32;33906;-65
2022/04/04 13:15:11;;;;;;;8.88;4.72;;;;;;;6.75;43.21;100058.16;4425917;32;34823;-65
2022/04/04 13:17:40;;;;;;;9.68;4.90;;;;;;;7.60;42.57;100048.84;4451089;32;33890;-64
2022/04/04 13:20:14;;;;;;;9.80;5.45;;;;;;;7.21;42.30;100050.75;4451618;32;33521;-65
2022/04/04 13:22:43;;;;;;;8.68;5.18;;;;;;;6.93;44.27;100052.41;4452902;32;33660;-65
2022/04/04 13:25:11;;;;;;;9.48;5.07;;;;;;;6.84;45.56;100043.31;4438037;32;33218;-65
2022/04/04 13:27:41;;;;;;;10.32;5.53;;;;;;;6.83;46.86;100041.50;4453238;32;32359;-66
2022/04/04 13:30:11;;;;;;;13.38;5.78;;;;;;;7.08;44.73;100043.06;4452949;32;33576;-64
2022/04/04 13:32:40;;;;;;;8.95;5.62;;;;;;;6.97;45.01;100038.94;4439241;32;33610;-64
2022/04/04 13:35:08;;;;;;;12.57;6.90;;;;;;;6.75;45.17;100036.69;4452014;32;33912;-64
2022/04/04 13:37:36;;;;;;;10.90;6.95;;;;;;;6.58;46.17;100036.50;4452247;32;33674;-63
2022/04/04 13:40:05;;;;;;;10.70;5.87;;;;;;;6.63;46.16;100031.66;4453060;32;34265;-65
2022/04/04 13:42:32;;;;;;;12.85;7.03;;;;;;;7.44;44.58;100018.69;4436422;32;33683;-65
2022/04/04 13:45:00;;;;;;;8.75;5.82;;;;;;;7.16;45.85;100021.25;4451977;32;34560;-63
2022/04/04 13:47:27;;;;;;;11.52;5.95;;;;;;;6.95;46.52;100009.59;4452633;32;34760;-63
2022/04/04 13:49:57;;;;;;;11.23;6.00;;;;;;;6.77;46.05;100010.25;4452690;32;34291;-64
2022/04/04 13:52:25;;;;;;;10.60;6.60;;;;;;;6.55;46.17;100004.50;4450480;32;34547;-65
2022/04/04 13:54:53;;;;;;;10.90;7.10;;;;;;;7.06;46.08;100000.88;4452069;32;33898;-65
2022/04/04 13:57:22;;;;;;;9.65;6.15;;;;;;;6.42;47.36;100001.16;4445192;32;33717;-65
2022/04/04 13:59:49;;;;;;;10.82;6.20;;;;;;;6.60;46.73;100000.56;4453041;32;33429;-65
2022/04/04 14:02:17;;;;;;;12.15;6.53;;;;;;;6.65;46.46;99999.19;4446556;32;33597;-65
2022/04/04 14:04:47;;;;;;;10.77;7.00;;;;;;;6.57;47.23;99987.50;4452303;32;33111;-65
2022/04/04 14:07:14;;;;;;;10.55;6.82;;;;;;;6.46;48.74;99985.13;4443160;32;33804;-65
2022/04/04 14:09:43;;;;;;;12.48;7.80;;;;;;;6.14;48.21;99971.88;4436839;32;33827;-65
2022/04/04 14:12:11;;;;;;;13.13;7.68;;;;;;;6.36;49.13;99977.63;4450001;32;34513;-65
2022/04/04 14:14:39;;;;;;;10.60;6.95;;;;;;;6.29;49.44;99967.72;4449326;32;33435;-65
2022/04/04 14:17:09;;;;;;;11.30;7.05;;;;;;;6.38;50.11;99965.75;4447230;32;34653;-63
2022/04/04 14:19:37;;;;;;;11.85;7.25;;;;;;;6.19;50.79;99961.09;4451242;32;33441;-64
2022/04/04 14:22:04;;;;;;;13.30;7.28;;;;;;;6.13;48.71;99962.41;4450842;32;34496;-65
2022/04/04 14:24:32;;;;;;;12.18;6.55;;;;;;;6.25;49.28;99955.44;4451707;32;33466;-62
2022/04/04 14:26:59;;;;;;;13.77;7.80;;;;;;;6.23;49.85;99957.03;4453843;32;33654;-63
2022/04/04 14:29:27;;;;;;;14.65;7.72;;;;;;;6.03;50.81;99954.06;4452163;32;33707;-63
2022/04/04 14:31:54;;;;;;;10.80;7.28;;;;;;;6.23;51.05;99957.03;4438169;32;31485;-63